createdAt,value
2023-02-21T00:00:57.333Z,99202.73
2023-02-21T00:03:51.823Z,99203.73
2023-02-21T00:06:41.916Z,99204.61
2023-02-21T00:09:31.868Z,99201.27
2023-02-21T00:12:32.394Z,99203.17
2023-02-21T00:15:22.215Z,99201.91
2023-02-21T00:18:15.069Z,99200.92
2023-02-21T00:21:04.654Z,99198.96
2023-02-21T00:23:55.936Z,99195.30
2023-02-21T00:26:45.597Z,99197.25
2023-02-21T00:29:35.753Z,99192.58
2023-02-21T00:32:25.942Z,99197.99
2023-02-21T00:35:16.089Z,99195.60
2023-02-21T00:38:07.683Z,99195.52
2023-02-21T00:40:58.100Z,99189.96
2023-02-21T00:43:54.131Z,99197.95
2023-02-21T00:46:44.080Z,99190.95
2023-02-21T00:49:33.572Z,99189.02
2023-02-21T00:52:23.532Z,99189.97
2023-02-21T00:55:13.262Z,99188.27
2023-02-21T00:58:02.947Z,99188.89
2023-02-21T01:00:55.862Z,99187.78
2023-02-21T01:03:46.401Z,99189.80
2023-02-21T01:06:36.125Z,99186.77
2023-02-21T01:09:33.513Z,99174.86
2023-02-21T01:12:23.704Z,99171.02
2023-02-21T01:15:13.136Z,99169.63
2023-02-21T01:18:03.517Z,99171.32
2023-02-21T01:20:58.149Z,99170.54
2023-02-21T01:23:49.837Z,99170.13
2023-02-21T01:26:39.577Z,99166.73
2023-02-21T01:29:32.892Z,99169.40
2023-02-21T01:32:23.798Z,99172.65
2023-02-21T01:35:13.636Z,99177.77
2023-02-21T01:38:03.868Z,99181.67
2023-02-21T01:40:53.715Z,99175.91
2023-02-21T01:43:45.118Z,99176.27
2023-02-21T01:46:36.419Z,99177.94
2023-02-21T01:49:30.659Z,99178.48
2023-02-21T01:52:23.743Z,99178.64
2023-02-21T01:55:23.198Z,99167.98
2023-02-21T01:58:33.208Z,99161.38
2023-02-21T02:01:27.049Z,99157.05
2023-02-21T02:04:18.246Z,99155.10
2023-02-21T02:07:11.362Z,99154.06
2023-02-21T02:10:01.936Z,99152.96
2023-02-21T02:12:54.549Z,99151.86
2023-02-21T02:15:42.549Z,99150.91
2023-02-21T02:18:31.917Z,99151.58
2023-02-21T02:21:43.722Z,99145.17
2023-02-21T02:24:35.386Z,99139.98
2023-02-21T02:27:49.917Z,99140.65
2023-02-21T02:31:22.010Z,99130.44
2023-02-21T02:34:26.532Z,99124.48
2023-02-21T02:37:13.424Z,99119.38
2023-02-21T02:39:55.200Z,99117.53
2023-02-21T02:44:01.478Z,99118.54
2023-02-21T02:46:49.225Z,99119.16
2023-02-21T02:49:29.069Z,99113.05
2023-02-21T02:52:06.656Z,99111.82
2023-02-21T02:54:39.048Z,99114.36
2023-02-21T02:57:13.429Z,99118.39
2023-02-21T03:00:07.839Z,99117.14
2023-02-21T03:03:09.609Z,99118.43
2023-02-21T03:06:01.193Z,99119.77
2023-02-21T03:08:47.151Z,99115.59
2023-02-21T03:11:28.352Z,99129.91
2023-02-21T03:14:11.890Z,99127.61
2023-02-21T03:16:49.361Z,99117.79
2023-02-21T03:19:29.056Z,99124.10
2023-02-21T03:22:10.099Z,99122.70
2023-02-21T03:24:55.930Z,99123.16
2023-02-21T03:27:39.370Z,99128.91
2023-02-21T03:30:52.800Z,99128.13
2023-02-21T03:33:30.979Z,99129.02
2023-02-21T03:36:13.554Z,99129.21
2023-02-21T03:38:50.640Z,99131.67
2023-02-21T03:41:25.785Z,99130.64
2023-02-21T03:44:08.615Z,99128.48
2023-02-21T03:46:55.190Z,99122.34
2023-02-21T03:49:30.056Z,99120.11
2023-02-21T03:52:13.815Z,99124.80
2023-02-21T03:54:49.668Z,99125.67
2023-02-21T03:57:42.296Z,99125.52
2023-02-21T04:00:34.627Z,99126.59
2023-02-21T04:03:19.111Z,99130.34
2023-02-21T04:06:17.641Z,99128.66
2023-02-21T04:08:53.258Z,99128.98
2023-02-21T04:11:36.810Z,99127.47
2023-02-21T04:14:29.150Z,99124.63
2023-02-21T04:17:09.990Z,99129.08
2023-02-21T04:19:56.359Z,99125.23
2023-02-21T04:22:40.642Z,99127.61
2023-02-21T04:25:31.853Z,99132.50
2023-02-21T04:28:24.110Z,99134.14
2023-02-21T04:31:07.579Z,99137.15
2023-02-21T04:34:11.354Z,99137.15
2023-02-21T04:36:46.188Z,99133.63
2023-02-21T04:39:21.812Z,99130.23
2023-02-21T04:42:05.612Z,99130.44
2023-02-21T04:45:00.268Z,99130.17
2023-02-21T04:47:37.960Z,99126.94
2023-02-21T04:50:15.461Z,99128.08
2023-02-21T04:53:06.610Z,99127.04
2023-02-21T04:55:57.448Z,99127.95
2023-02-21T04:58:44.777Z,99129.41
2023-02-21T05:01:37.944Z,99137.90
2023-02-21T05:04:30.207Z,99133.10
2023-02-21T05:07:22.711Z,99135.05
2023-02-21T05:10:16.088Z,99139.20
2023-02-21T05:13:08.397Z,99136.63
2023-02-21T05:15:44.058Z,99139.00
2023-02-21T05:18:28.841Z,99145.82
2023-02-21T05:21:23.821Z,99149.92
2023-02-21T05:24:08.177Z,99151.59
2023-02-21T05:26:46.595Z,99155.43
2023-02-21T05:29:32.781Z,99159.20
2023-02-21T05:32:14.486Z,99159.20
2023-02-21T05:35:05.737Z,99159.59
2023-02-21T05:37:40.484Z,99162.59
2023-02-21T05:40:25.787Z,99160.17
2023-02-21T05:43:10.788Z,99163.39
2023-02-21T05:46:20.999Z,99159.93
2023-02-21T05:49:05.074Z,99154.92
2023-02-21T05:51:47.389Z,99156.65
2023-02-21T06:52:33.302Z,99216.67
2023-02-21T06:55:07.459Z,99212.36
2023-02-21T06:57:40.470Z,99214.74
2023-02-21T07:00:12.496Z,99213.45
2023-02-21T07:02:44.984Z,99216.26
2023-02-21T07:05:17.310Z,99216.02
2023-02-21T07:07:54.044Z,99213.19
2023-02-21T07:10:29.207Z,99221.63
2023-02-21T07:13:01.734Z,99219.11
2023-02-21T07:15:34.122Z,99221.67
2023-02-21T07:18:06.858Z,99227.60
2023-02-21T07:20:41.735Z,99236.07
2023-02-21T07:23:16.159Z,99239.04
2023-02-21T07:25:49.759Z,99238.20
2023-02-21T07:28:20.494Z,99235.30
2023-02-21T07:30:52.891Z,99230.04
2023-02-21T07:33:45.134Z,99226.70
2023-02-21T07:36:20.415Z,99219.71
2023-02-21T07:38:56.019Z,99222.19
2023-02-21T07:41:26.604Z,99224.70
2023-02-21T07:43:59.621Z,99229.54
2023-02-21T07:46:32.043Z,99234.49
2023-02-21T07:49:04.189Z,99234.02
2023-02-21T07:51:36.760Z,99236.73
2023-02-21T07:54:29.570Z,99231.54
2023-02-21T07:57:10.621Z,99231.23
2023-02-21T07:59:55.827Z,99236.23
2023-02-21T08:02:48.822Z,99235.96
2023-02-21T08:05:42.199Z,99231.23
2023-02-21T08:08:34.656Z,99239.26
2023-02-21T08:11:27.369Z,99237.41
2023-02-21T08:14:19.855Z,99237.38
2023-02-21T08:17:10.497Z,99241.77
2023-02-21T08:19:51.335Z,99244.73
2023-02-21T08:45:10.847Z,99244.53
2023-02-21T08:47:56.627Z,99245.17
2023-02-21T08:50:49.448Z,99252.30
2023-02-21T08:53:27.393Z,99247.81
2023-02-21T08:56:14.205Z,99241.54
2023-02-21T08:58:56.131Z,99241.78
2023-02-21T09:01:40.195Z,99248.39
2023-02-21T09:04:19.901Z,99254.01
2023-02-21T09:06:58.083Z,99260.63
2023-02-21T09:09:51.090Z,99257.66
2023-02-21T09:12:23.332Z,99265.40
2023-02-21T09:14:55.662Z,99263.09
2023-02-21T09:17:27.982Z,99257.81
2023-02-21T09:20:23.974Z,99257.38
2023-02-21T09:23:05.782Z,99258.41
2023-02-21T09:25:58.615Z,99268.64
2023-02-21T09:28:33.918Z,99274.23
2023-02-21T09:31:14.980Z,99279.42
2023-02-21T09:33:50.443Z,99273.39
2023-02-21T09:36:42.805Z,99275.09
2023-02-21T09:39:29.981Z,99278.91
2023-02-21T09:42:18.269Z,99278.35
2023-02-21T09:44:59.746Z,99289.33
2023-02-21T09:47:47.222Z,99285.46
2023-02-21T09:50:27.866Z,99289.67
2023-02-21T09:53:06.136Z,99304.52
2023-02-21T09:55:42.480Z,99299.04
2023-02-21T09:58:30.359Z,99291.10
2023-02-21T10:01:10.129Z,99283.27
2023-02-21T10:03:52.385Z,99292.88
2023-02-21T10:06:44.675Z,99293.75
2023-02-21T10:09:39.348Z,99294.75
2023-02-21T10:12:24.733Z,99298.80
2023-02-21T10:15:24.893Z,99297.97
2023-02-21T10:18:06.893Z,99295.01
2023-02-21T10:21:05.084Z,99307.58
2023-02-21T10:24:04.971Z,99309.07
2023-02-21T10:26:54.818Z,99307.80
2023-02-21T10:29:52.011Z,99309.50
2023-02-21T10:32:44.595Z,99312.06
2023-02-21T10:35:22.003Z,99308.58
2023-02-21T10:38:00.727Z,99308.19
2023-02-21T10:40:44.154Z,99314.95
2023-02-21T10:43:33.019Z,99315.63
2023-02-21T10:46:29.116Z,99319.89
2023-02-21T10:49:22.928Z,99323.28
2023-02-21T10:52:10.662Z,99321.05
2023-02-21T10:55:04.964Z,99321.64
2023-02-21T10:57:44.502Z,99330.38
2023-02-21T11:00:39.369Z,99321.37
2023-02-21T11:03:27.638Z,99321.15
2023-02-21T11:06:11.675Z,99333.45
2023-02-21T11:08:47.168Z,99330.24
2023-02-21T11:11:40.586Z,99337.05
2023-02-21T11:14:27.253Z,99348.35
2023-02-21T11:17:23.156Z,99345.25
2023-02-21T11:19:57.515Z,99340.84
2023-02-21T11:22:42.959Z,99340.60
2023-02-21T11:25:25.709Z,99338.31
2023-02-21T11:28:18.873Z,99333.16
2023-02-21T11:31:09.194Z,99334.59
2023-02-21T11:33:43.644Z,99332.40
2023-02-21T11:36:18.891Z,99327.27
2023-02-21T11:39:19.224Z,99326.55
2023-02-21T11:41:55.783Z,99332.89
2023-02-21T11:44:39.645Z,99344.42
2023-02-21T11:47:27.032Z,99349.91
2023-02-21T11:50:32.963Z,99355.11
2023-02-21T11:53:18.426Z,99356.06
2023-02-21T11:56:03.772Z,99354.91
2023-02-21T11:59:04.448Z,99356.09
2023-02-21T12:01:48.616Z,99354.95
2023-02-21T12:04:39.073Z,99354.96
2023-02-21T12:07:42.323Z,99362.20
2023-02-21T12:10:47.441Z,99355.76
2023-02-21T12:13:38.210Z,99352.23
2023-02-21T12:16:43.138Z,99349.77
2023-02-21T12:19:28.692Z,99347.63
2023-02-21T12:22:23.075Z,99350.35
2023-02-21T12:25:11.168Z,99339.31
2023-02-21T12:28:14.248Z,99335.88
2023-02-21T12:31:15.358Z,99329.70
2023-02-21T12:34:22.343Z,99327.43
2023-02-21T12:37:14.040Z,99327.89
2023-02-21T12:40:21.153Z,99334.60
2023-02-21T12:43:33.833Z,99328.94
2023-02-21T12:46:15.699Z,99339.44
2023-02-21T12:48:56.930Z,99337.79
2023-02-21T12:51:42.428Z,99334.73
2023-02-21T12:54:19.799Z,99341.90
2023-02-21T12:57:17.408Z,99343.84
2023-02-21T13:00:19.390Z,99349.16
2023-02-21T13:03:24.608Z,99349.87
2023-02-21T13:06:22.210Z,99346.88
2023-02-21T13:09:23.267Z,99349.20
2023-02-21T13:12:10.887Z,99341.65
2023-02-21T13:14:50.502Z,99342.38
2023-02-21T13:17:34.161Z,99345.27
2023-02-21T13:20:10.468Z,99349.87
2023-02-21T13:23:37.302Z,99345.26
2023-02-21T13:26:29.436Z,99349.02
2023-02-21T13:29:02.177Z,99343.73
2023-02-21T13:31:46.026Z,99344.52
2023-02-21T13:34:45.265Z,99344.06
2023-02-21T13:37:24.784Z,99342.17
2023-02-21T13:40:09.205Z,99346.23
2023-02-21T13:43:11.242Z,99341.85
2023-02-21T13:45:45.893Z,99349.97
2023-02-21T13:48:31.076Z,99347.89
2023-02-21T13:51:06.014Z,99352.02
2023-02-21T13:54:10.339Z,99351.08
2023-02-21T13:56:49.394Z,99359.74
2023-02-21T13:59:38.239Z,99349.70
2023-02-21T14:02:31.193Z,99355.80
2023-02-21T14:05:10.064Z,99357.48
2023-02-21T14:08:07.982Z,99355.01
2023-02-21T14:10:47.826Z,99353.04
2023-02-21T14:13:38.169Z,99351.46
2023-02-21T14:16:28.670Z,99346.66
2023-02-21T14:19:20.738Z,99341.59
2023-02-21T14:22:11.289Z,99344.73
2023-02-21T14:24:49.574Z,99345.73
2023-02-21T14:27:42.164Z,99337.80
2023-02-21T14:30:31.832Z,99340.01
2023-02-21T14:33:30.951Z,99336.52
2023-02-21T14:36:25.168Z,99337.67
2023-02-21T14:39:18.190Z,99342.36
2023-02-21T14:42:13.876Z,99340.09
2023-02-21T14:45:02.549Z,99345.07
2023-02-21T14:48:09.955Z,99349.50
2023-02-21T14:51:48.916Z,99344.91
2023-02-21T14:55:15.429Z,99347.10
2023-02-21T14:58:33.670Z,99342.44
2023-02-21T15:01:18.304Z,99355.30
2023-02-21T15:04:02.670Z,99351.72
2023-02-21T15:07:02.082Z,99353.65
2023-02-21T15:09:43.176Z,99357.20
2023-02-21T15:12:26.806Z,99359.09
2023-02-21T15:15:21.348Z,99359.86
2023-02-21T15:18:26.337Z,99363.25
2023-02-21T15:21:24.047Z,99366.15
2023-02-21T15:24:16.921Z,99373.34
2023-02-21T15:27:15.448Z,99372.77
2023-02-21T15:30:22.385Z,99375.42
2023-02-21T15:33:33.344Z,99373.48
2023-02-21T15:36:39.769Z,99378.35
2023-02-21T15:39:28.177Z,99383.45
2023-02-21T15:42:13.835Z,99389.61
2023-02-21T15:45:11.228Z,99383.02
2023-02-21T15:47:57.749Z,99385.66
2023-02-21T15:50:51.169Z,99388.85
2023-02-21T15:53:27.903Z,99389.46
2023-02-21T15:56:25.484Z,99396.76
2023-02-21T15:59:11.902Z,99393.13
2023-02-21T16:01:47.350Z,99390.93
2023-02-21T16:04:41.204Z,99392.00
2023-02-21T16:07:37.492Z,99396.43
2023-02-21T16:10:24.854Z,99398.16
2023-02-21T16:13:08.680Z,99402.79
2023-02-21T16:16:03.653Z,99408.73
2023-02-21T16:18:59.836Z,99406.63
2023-02-21T16:22:10.770Z,99420.27
2023-02-21T16:25:14.953Z,99423.36
2023-02-21T16:28:00.267Z,99426.52
2023-02-21T16:30:46.683Z,99431.55
2023-02-21T16:33:26.915Z,99433.96
2023-02-21T16:36:25.214Z,99433.13
2023-02-21T16:39:04.681Z,99437.25
2023-02-21T16:41:57.133Z,99441.87
2023-02-21T16:44:32.565Z,99445.20
2023-02-21T16:47:20.306Z,99447.14
2023-02-21T16:50:20.454Z,99456.30
2023-02-21T16:53:14.368Z,99457.13
2023-02-21T16:56:08.145Z,99458.22
2023-02-21T16:58:56.664Z,99463.29
2023-02-21T17:01:34.334Z,99468.14
2023-02-21T17:04:20.618Z,99474.37
2023-02-21T17:07:14.901Z,99477.51
2023-02-21T17:10:00.941Z,99480.19
2023-02-21T17:12:46.032Z,99486.98
2023-02-21T17:15:32.666Z,99495.39
2023-02-21T17:18:26.578Z,99497.98
2023-02-21T17:21:10.251Z,99505.18
2023-02-21T17:23:45.342Z,99504.26
2023-02-21T17:26:28.857Z,99504.28
2023-02-21T17:29:14.397Z,99506.04
2023-02-21T17:31:46.781Z,99511.89
2023-02-21T17:34:38.820Z,99513.23
2023-02-21T17:37:22.762Z,99515.98
2023-02-21T17:40:10.318Z,99515.11
2023-02-21T17:42:53.857Z,99514.69
2023-02-21T17:45:46.086Z,99520.48
2023-02-21T17:48:30.932Z,99523.16
2023-02-21T17:51:08.655Z,99528.71
2023-02-21T17:54:01.444Z,99527.42
2023-02-21T17:56:53.973Z,99528.05
2023-02-21T17:59:46.924Z,99529.30
2023-02-21T18:02:39.315Z,99533.31
2023-02-21T18:05:14.831Z,99538.55
2023-02-21T18:08:08.746Z,99536.23
2023-02-21T18:11:00.118Z,99535.71
2023-02-21T18:13:53.118Z,99540.23
2023-02-21T18:16:39.578Z,99546.31
2023-02-21T18:19:21.015Z,99549.66
2023-02-21T18:22:09.962Z,99554.20
2023-02-21T18:24:55.816Z,99562.27
2023-02-21T18:27:48.222Z,99566.29
2023-02-21T18:30:29.796Z,99564.54
2023-02-21T18:33:27.211Z,99573.73
2023-02-21T18:36:20.577Z,99577.91
2023-02-21T18:39:10.884Z,99579.48
2023-02-21T18:42:04.603Z,99583.17
2023-02-21T18:44:58.930Z,99586.50
2023-02-21T18:47:50.450Z,99593.86
2023-02-21T18:50:36.880Z,99598.18
2023-02-21T18:53:31.787Z,99598.35
2023-02-21T18:56:24.578Z,99598.02
2023-02-21T18:59:05.643Z,99597.95
2023-02-21T19:01:53.952Z,99602.53
2023-02-21T19:04:31.051Z,99609.05
2023-02-21T19:07:23.519Z,99614.14
2023-02-21T19:10:18.124Z,99617.77
2023-02-21T19:13:02.211Z,99621.93
2023-02-21T19:15:55.226Z,99620.92
2023-02-21T19:18:40.738Z,99620.17
2023-02-21T19:21:34.112Z,99624.41
2023-02-21T19:24:25.644Z,99628.42
2023-02-21T19:27:08.572Z,99630.34
2023-02-21T19:29:44.517Z,99634.45
2023-02-21T19:32:38.000Z,99635.28
2023-02-21T19:35:31.897Z,99642.29
2023-02-21T19:38:23.600Z,99638.48
2023-02-21T19:40:56.879Z,99644.05
2023-02-21T19:44:23.748Z,99644.03
2023-02-21T19:47:45.291Z,99647.90
2023-02-21T19:50:43.833Z,99651.55
2023-02-21T19:53:52.012Z,99648.54
2023-02-21T19:56:39.645Z,99651.53
2023-02-21T19:59:29.924Z,99653.60
2023-02-21T20:02:30.924Z,99654.61
2023-02-21T20:05:40.636Z,99654.71
2023-02-21T20:08:40.731Z,99658.39
2023-02-21T20:11:26.630Z,99660.22
2023-02-21T20:14:01.537Z,99663.57
2023-02-21T20:16:46.544Z,99660.06
2023-02-21T20:19:31.783Z,99667.98
2023-02-21T20:22:25.605Z,99673.98
2023-02-21T20:25:09.981Z,99675.48
2023-02-21T20:28:03.809Z,99679.98
2023-02-21T20:30:58.757Z,99682.08
2023-02-21T20:33:37.148Z,99687.02
2023-02-21T20:36:34.786Z,99686.16
2023-02-21T20:39:20.650Z,99688.19
2023-02-21T20:42:12.911Z,99690.19
2023-02-21T20:45:07.929Z,99687.47
2023-02-21T20:48:02.663Z,99690.87
2023-02-21T20:51:08.216Z,99689.10
2023-02-21T20:53:53.583Z,99691.82
2023-02-21T20:56:34.084Z,99698.33
2023-02-21T20:59:38.777Z,99698.75
2023-02-21T21:02:31.428Z,99701.52
2023-02-21T21:05:17.153Z,99704.60
2023-02-21T21:08:42.252Z,99709.23
2023-02-21T21:11:35.188Z,99704.46
2023-02-21T21:14:27.886Z,99709.84
2023-02-21T21:17:13.911Z,99711.05
2023-02-21T21:20:02.181Z,99706.25
2023-02-21T21:22:55.591Z,99704.26
2023-02-21T21:25:34.589Z,99705.79
2023-02-21T21:28:27.013Z,99705.19
2023-02-21T21:31:10.243Z,99712.52
2023-02-21T21:34:02.713Z,99711.83
2023-02-21T21:36:37.290Z,99712.86
2023-02-21T21:39:14.890Z,99714.30
2023-02-21T21:41:59.991Z,99715.13
2023-02-21T21:44:37.594Z,99717.35
2023-02-21T21:47:31.980Z,99719.84
2023-02-21T21:50:08.385Z,99716.92
2023-02-21T21:53:01.095Z,99725.73
2023-02-21T21:55:38.381Z,99728.52
2023-02-21T21:58:25.721Z,99729.94
2023-02-21T22:01:01.213Z,99727.48
2023-02-21T22:03:35.855Z,99735.56
2023-02-21T22:06:18.072Z,99735.34
2023-02-21T22:09:15.328Z,99736.08
2023-02-21T22:11:52.668Z,99735.61
2023-02-21T22:14:28.676Z,99739.55
2023-02-21T22:17:21.128Z,99741.34
2023-02-21T22:20:17.586Z,99747.66
2023-02-21T22:22:59.469Z,99744.05
2023-02-21T22:25:42.955Z,99747.64
2023-02-21T22:28:18.828Z,99745.61
2023-02-21T22:31:12.053Z,99748.92
2023-02-21T22:34:04.628Z,99750.95
2023-02-21T22:36:58.665Z,99752.04
2023-02-21T22:39:40.251Z,99757.20
2023-02-21T22:42:31.132Z,99754.66
2023-02-21T22:45:26.099Z,99751.08
2023-02-21T22:48:11.629Z,99754.52
2023-02-21T22:50:55.449Z,99752.79
2023-02-21T22:53:30.933Z,99752.17
2023-02-21T22:56:17.457Z,99754.52
2023-02-21T22:59:01.626Z,99751.25
2023-02-21T23:01:54.395Z,99750.56
2023-02-21T23:04:37.522Z,99747.91
2023-02-21T23:07:13.334Z,99749.86
2023-02-21T23:09:48.629Z,99753.48
2023-02-21T23:12:37.808Z,99755.24
2023-02-21T23:15:30.446Z,99755.61
2023-02-21T23:18:23.406Z,99756.80
2023-02-21T23:20:58.842Z,99759.80
2023-02-21T23:23:52.207Z,99760.84
2023-02-21T23:26:34.357Z,99762.04
2023-02-21T23:29:09.704Z,99761.52
2023-02-21T23:32:09.802Z,99766.64
2023-02-21T23:35:02.247Z,99764.73
2023-02-21T23:37:46.637Z,99765.46
2023-02-21T23:40:39.449Z,99768.60
2023-02-21T23:43:20.607Z,99774.23
2023-02-21T23:46:01.353Z,99768.46
2023-02-21T23:48:33.809Z,99771.75
2023-02-21T23:51:26.480Z,99772.88
2023-02-21T23:54:01.823Z,99775.48
2023-02-21T23:56:41.830Z,99773.77
2023-02-21T23:59:36.043Z,99771.91
